»·PEaware :: JBU727 PAJN-CYVR

JBU727 :: PAJN-CYVR

FLIGHT INFORMATION

Flight Status: Arrived
Operator:
JetBlue Airways
More flights by this operator :: More flights under this callsign
Pilot: Anonymous 5323 (5323)
Aircraft: BOEING 727-200
(B722)
More flights by this aircraft type
Origin: PAJN Juneau Intl
United States
Destination: CYVR Vancouver Intl
Canada
More flights between these airports :: More routes between these airports
Route: SSR J502 YZT J590 YVR
File this flight plan on PilotEdge
Remarks:
Altitude:
(Current/Filed)
31,000ft
Speed:
(Current/Filed)
480kts
Departed: 11-May-15 01:06 PM
Arrived: 11-May-15 02:52 PM
Distance/Time
Traveled:
680nm/1:46
Distance/Time
To Go:
Arrived

Flight Plot

Page will automatically refresh every two minutes.


Map Options




Map Legend


Flown Route
Filed Route
Departure Airport
Arrival Airport
Navaid (VOR, NDB)
Fix

Horizontal Profiles

Position Reports

Time Latitude Longitude Heading Altitude Ground
Speed
11-May-15 12:47 58.358311 -134.584600 50 32ft 0kts
11-May-15 12:48 58.358311 -134.584600 50 32ft 0kts
11-May-15 12:49 58.358311 -134.584600 50 32ft 0kts
11-May-15 12:50 58.358311 -134.584600 50 32ft 0kts
11-May-15 12:51 58.358311 -134.584600 50 32ft 0kts
11-May-15 12:52 58.358311 -134.584600 50 32ft 0kts
11-May-15 12:53 58.358311 -134.584600 50 32ft 0kts
11-May-15 12:54 58.358311 -134.584600 50 32ft 0kts
11-May-15 12:55 58.358311 -134.584600 50 32ft 0kts
11-May-15 12:56 58.357801 -134.584508 284 32ft 0kts
11-May-15 12:57 58.357801 -134.584508 284 32ft 0kts
11-May-15 12:58 58.357801 -134.584508 284 32ft 0kts
11-May-15 12:59 58.357801 -134.584508 284 32ft 0kts
11-May-15 13:00 58.357582 -134.587746 281 32ft 12kts
11-May-15 13:01 58.358612 -134.596286 253 32ft 4kts
11-May-15 13:02 58.357917 -134.596753 117 32ft 4kts
11-May-15 13:03 58.352171 -134.555768 107 255ft 178kts
11-May-15 13:04 58.314919 -134.458690 135 2540ft 256kts
11-May-15 13:05 58.265558 -134.362465 134 6026ft 263kts
11-May-15 13:06 58.202385 -134.323029 211 8934ft 277kts
11-May-15 13:07 58.147554 -134.432107 225 11293ft 303kts
11-May-15 13:08 58.079504 -134.543813 190 12991ft 336kts
11-May-15 13:09 57.984956 -134.569007 186 15064ft 355kts
11-May-15 13:10 57.886037 -134.590675 186 17323ft 363kts
11-May-15 13:11 57.784090 -134.611849 186 19225ft 374kts
11-May-15 13:12 57.679445 -134.631938 179 20932ft 384kts
11-May-15 13:13 57.593548 -134.522585 137 22308ft 392kts
11-May-15 13:14 57.505561 -134.398370 145 23750ft 401kts
11-May-15 13:15 57.413260 -134.282883 146 25082ft 409kts
11-May-15 13:16 57.317727 -134.165033 145 26218ft 420kts
11-May-15 13:17 57.223702 -134.037651 140 27170ft 427kts
11-May-15 13:18 57.126651 -133.908168 143 28281ft 433kts
11-May-15 13:19 57.028750 -133.781990 144 29158ft 442kts
11-May-15 13:20 56.926904 -133.653005 144 30165ft 445kts
11-May-15 13:21 56.826250 -133.526520 144 31168ft 446kts
11-May-15 13:22 56.720857 -133.394962 144 31151ft 469kts
11-May-15 13:23 56.611162 -133.259025 144 31148ft 487kts
11-May-15 13:24 56.498112 -133.117930 141 31131ft 499kts
11-May-15 13:25 56.377949 -132.995422 150 31140ft 501kts
11-May-15 13:26 56.255600 -132.874844 150 31143ft 506kts
11-May-15 13:27 56.132057 -132.753330 151 31169ft 511kts
11-May-15 13:28 56.006916 -132.632048 153 31168ft 516kts
11-May-15 13:29 55.885020 -132.499843 151 31171ft 514kts
11-May-15 13:30 55.760297 -132.376176 150 31166ft 512kts
11-May-15 13:31 55.636418 -132.255111 150 31165ft 511kts
11-May-15 13:32 55.521663 -132.115359 123 31191ft 501kts
11-May-15 13:33 55.413129 -131.964738 146 31174ft 508kts
11-May-15 13:34 55.293895 -131.832384 146 31171ft 514kts
11-May-15 13:35 55.172046 -131.699166 147 31171ft 519kts
11-May-15 13:36 55.058412 -131.576177 148 31168ft 510kts
11-May-15 13:37 54.938858 -131.447684 148 31167ft 502kts
11-May-15 13:38 54.820707 -131.321600 148 31168ft 498kts
11-May-15 13:39 54.703231 -131.197094 148 31170ft 499kts
11-May-15 13:40 54.585652 -131.073301 148 31170ft 503kts
11-May-15 13:41 54.465678 -130.947895 149 31173ft 508kts
11-May-15 13:42 54.345659 -130.823591 149 31170ft 511kts
11-May-15 13:43 54.224007 -130.698145 149 31167ft 507kts
11-May-15 13:44 54.103845 -130.575156 149 31168ft 503kts
11-May-15 13:45 53.984363 -130.453672 150 31169ft 500kts
11-May-15 13:46 53.864599 -130.332749 149 31169ft 500kts
11-May-15 13:47 53.744853 -130.212623 150 31172ft 504kts
11-May-15 13:48 53.624159 -130.092384 150 31170ft 506kts
11-May-15 13:49 53.504164 -129.973625 150 31169ft 505kts
11-May-15 13:50 53.384801 -129.857303 150 31169ft 503kts
11-May-15 13:51 53.264842 -129.740193 150 31169ft 502kts
11-May-15 13:52 53.144988 -129.623969 150 31169ft 502kts
11-May-15 13:53 53.023904 -129.507369 150 31153ft 503kts
11-May-15 13:54 52.903432 -129.391617 148 31129ft 505kts
11-May-15 13:55 52.783501 -129.271604 148 31120ft 506kts
11-May-15 13:56 52.686688 -129.165724 146 31126ft 503kts
11-May-15 13:57 52.567160 -129.047009 149 31120ft 504kts
11-May-15 13:58 52.445759 -128.933356 150 31120ft 505kts
11-May-15 13:59 52.303735 -128.802705 150 31099ft 507kts
11-May-15 14:00 52.202782 -128.709586 149 31118ft 512kts
11-May-15 14:01 52.078187 -128.595204 149 31139ft 517kts
11-May-15 14:02 51.952367 -128.480611 149 31142ft 522kts
11-May-15 14:03 51.825214 -128.365521 149 31141ft 525kts
11-May-15 14:04 51.697667 -128.250780 149 31140ft 524kts
11-May-15 14:05 51.570687 -128.137347 150 31143ft 525kts
11-May-15 14:06 51.443495 -128.024445 150 31142ft 526kts
11-May-15 14:07 51.315865 -127.913346 149 31139ft 525kts
11-May-15 14:08 51.189210 -127.800961 149 31139ft 523kts
11-May-15 14:09 51.061674 -127.689573 151 31138ft 523kts
11-May-15 14:10 50.934058 -127.579384 150 31142ft 523kts
11-May-15 14:11 50.810283 -127.461690 134 31130ft 516kts
11-May-15 14:12 50.705724 -127.306032 135 31144ft 520kts
11-May-15 14:13 50.637685 -127.111990 102 31178ft 509kts
11-May-15 14:14 50.599635 -126.897987 104 31135ft 510kts
11-May-15 14:15 50.560374 -126.684175 104 31141ft 514kts
11-May-15 14:16 50.519708 -126.467500 104 31146ft 520kts
11-May-15 14:17 50.478857 -126.251826 105 31094ft 506kts
11-May-15 14:18 50.438750 -126.046672 108 31045ft 494kts
11-May-15 14:19 50.398228 -125.841483 108 31044ft 498kts
11-May-15 14:20 50.357489 -125.633208 108 31043ft 501kts
11-May-15 14:21 50.316253 -125.425079 108 31040ft 501kts
11-May-15 14:22 50.274675 -125.217407 108 31041ft 502kts
11-May-15 14:23 50.233014 -125.011658 108 31036ft 501kts
11-May-15 14:24 50.192166 -124.811638 108 31019ft 480kts
11-May-15 14:25 50.151491 -124.621961 109 29285ft 454kts
11-May-15 14:26 50.062447 -124.501062 157 26972ft 435kts
11-May-15 14:27 49.960455 -124.411285 124 24739ft 424kts
11-May-15 14:28 49.888454 -124.271715 135 22655ft 410kts
11-May-15 14:29 49.806408 -124.153065 137 20723ft 398kts
11-May-15 14:30 49.725612 -124.039569 137 18830ft 387kts
11-May-15 14:31 49.664312 -123.954053 136 17392ft 380kts
11-May-15 14:32 49.596442 -123.859319 136 16102ft 361kts
11-May-15 14:33 49.545601 -123.788395 136 15040ft 349kts
11-May-15 14:34 49.486106 -123.706145 137 13595ft 341kts
11-May-15 14:35 49.417078 -123.611653 137 11810ft 337kts
11-May-15 14:36 49.358185 -123.531237 135 10935ft 236kts
11-May-15 14:37 49.317568 -123.513695 237 8631ft 234kts
11-May-15 14:38 49.288896 -123.611857 286 4194ft 259kts
11-May-15 14:39 49.286328 -123.707100 207 2987ft 238kts
11-May-15 14:40 49.233737 -123.702977 110 2984ft 178kts
11-May-15 14:41 49.213238 -123.632926 113 3008ft 198kts
11-May-15 14:42 49.216737 -123.574622 71 2989ft 172kts
11-May-15 14:43 49.223559 -123.499752 99 3001ft 187kts
11-May-15 14:44 49.215124 -123.424127 101 2908ft 166kts
11-May-15 14:45 49.208282 -123.364684 102 2118ft 141kts
11-May-15 14:46 49.201374 -123.304923 102 1356ft 146kts
11-May-15 14:47 49.194509 -123.246464 101 600ft 134kts
11-May-15 14:48 49.188129 -123.190145 102 26ft 117kts
11-May-15 14:49 49.187147 -123.174461 68 26ft 9kts
11-May-15 14:50 49.188471 -123.175342 278 26ft 12kts
11-May-15 14:51 49.189309 -123.180661 350 26ft 10kts
11-May-15 14:52 49.191532 -123.181761 354 26ft 9kts

Navigation Log

Ident Type
1. PAJN Airport
2. SSR Navaid
3. HOODS Fix
4. LVD Navaid
5. DOOZI Fix
6. GESTI Fix
7. ANN Navaid
8. HANRY Fix
9. DUGGS Fix
10. PRYCE Fix
11. YZT Navaid
12. POWOL Fix
13. SULRY Fix
14. DUPOD Fix
15. YVR Navaid
16. CYVR Airport